Latest Weather Observations for Batchelor

IDD60801

Issued at 9:01 am CST Tuesday 30 August 2016 (issued every 30 minutes, with the page automatically refreshed every 10 minutes)

About weather observations | Map of weather stations | Latest weather observations for NT | Other Formats
Station Details ID: 014272 Name: BATCHELOR AIRPORT Lat: -13.05 Lon: 131.03 Height: 104.0 m
Data from the previous 72 hours. | See also: Recent months at Batchelor
Date/Time
CST
Temp
°C
App
Temp
°C
Dew
Point
°C
Rel
Hum
%
Delta-T
°C
Wind Press
QNH
hPa
Press
MSL
hPa
Rain since
9am
mm
Dir  Spd
km/h
Gust
km/h
Spd
kts
Gust
kts
30/09:00am 27.0 29.3 21.3 71 3.8 ESE 11 15 6 8 1017.0 1016.5 0.0
30/08:30am 25.3 27.7 20.1 73 3.4 E 7 9 4 5 1016.7 1016.2 0.0
30/08:00am 23.5 25.6 19.4 78 2.6 E 7 9 4 5 1016.4 1015.9 0.0
30/07:30am 22.7 24.9 19.5 82 2.0 SSW 7 9 4 5 1015.9 1015.4 0.0
30/07:00am 21.0 23.7 18.6 86 1.5 SSW 2 4 1 2 1015.6 1015.0 0.0
30/06:30am 20.2 22.9 17.8 86 1.5 CALM 0 0 0 0 1015.3 1014.7 0.0
30/06:00am 20.1 22.6 17.3 84 1.7 CALM 0 0 0 0 1014.8 1014.2 0.0
30/05:30am 20.5 23.0 17.3 82 2.0 CALM 0 0 0 0 1014.4 1013.8 0.0
30/05:00am 20.7 23.5 17.9 84 1.7 CALM 0 0 0 0 1014.3 1013.7 0.0
30/04:30am 20.9 23.7 17.9 83 1.9 CALM 0 0 0 0 1014.1 1013.5 0.0
30/04:00am 20.8 23.3 17.2 80 2.2 CALM 0 0 0 0 1013.9 1013.3 0.0
30/03:30am 21.0 23.6 17.4 80 2.2 CALM 0 0 0 0 1013.9 1013.3 0.0
30/03:00am 21.4 23.9 17.2 77 2.6 CALM 0 0 0 0 1014.2 1013.6 0.0
30/02:30am 21.6 23.9 16.8 74 2.9 CALM 0 0 0 0 1014.3 1013.7 0.0
30/02:00am 21.8 24.2 17.0 74 2.9 CALM 0 0 0 0 1014.4 1013.8 0.0
30/01:30am 22.2 24.5 16.7 71 3.4 CALM 0 0 0 0 1014.4 1013.8 0.0
30/01:00am 22.6 24.8 16.6 69 3.7 CALM 0 0 0 0 1014.3 1013.7 0.0
30/12:30am 22.8 24.7 16.8 69 3.7 SSW 2 7 1 4 1014.7 1014.1 0.0
30/12:00am 23.2 25.5 16.7 67 4.0 CALM 0 0 0 0 1014.7 1014.1 0.0
 
Date/Time
CST
Temp
°C
App
Temp
°C
Dew
Point
°C
Rel
Hum
%
Delta-T
°C
Wind Press
QNH
hPa
Press
MSL
hPa
Rain since
9am
mm
Dir  Spd
km/h
Gust
km/h
Spd
kts
Gust
kts
29/11:30pm 23.3 25.5 16.6 66 4.1 CALM 0 0 0 0 1014.7 1014.1 0.0
29/11:00pm 24.0 26.3 16.8 64 4.4 CALM 0 0 0 0 1014.4 1013.8 0.0
29/10:30pm 24.6 26.7 16.3 60 5.1 CALM 0 0 0 0 1014.1 1013.5 0.0
29/10:00pm 25.4 26.8 16.5 58 5.5 SSW 4 6 2 3 1013.7 1013.1 0.0
29/09:30pm 26.2 27.6 16.4 54 6.1 NNW 4 7 2 4 1013.6 1013.0 0.0
29/09:00pm 26.9 28.0 16.5 53 6.5 N 6 9 3 5 1013.2 1012.6 0.0
29/08:30pm 27.3 27.9 15.7 49 7.1 N 7 11 4 6 1012.5 1012.0 0.0
29/08:00pm 27.8 28.5 15.5 47 7.5 N 6 9 3 5 1012.1 1011.6 0.0
29/07:30pm 28.8 28.8 15.3 43 8.3 N 9 15 5 8 1011.8 1011.3 0.0
29/07:00pm 29.3 29.1 15.8 44 8.4 NNE 11 17 6 9 1011.4 1010.9 0.0
29/06:30pm 30.4 30.2 15.7 41 9.1 N 11 19 6 10 1010.9 1010.4 0.0
29/06:00pm 31.4 30.9 15.0 37 10.1 N 11 17 6 9 1010.7 1010.2 0.0
29/05:30pm 32.7 31.7 13.4 31 11.7 NE 11 20 6 11 1010.3 1009.8 0.0
29/05:00pm 33.6 31.3 9.0 22 14.0 NE 11 15 6 8 1010.2 1009.7 0.0
29/04:30pm 33.7 32.0 9.7 23 13.8 NE 9 17 5 9 1010.0 1009.5 0.0
29/04:00pm 34.0 32.7 9.9 23 13.9 E 7 13 4 7 1010.0 1009.5 0.0
29/03:30pm 33.9 32.0 10.5 24 13.6 N 11 19 6 10 1010.1 1009.6 0.0
29/03:00pm 34.0 33.1 11.2 25 13.4 NNE 7 17 4 9 1010.6 1010.1 0.0
29/02:30pm 33.5 32.3 10.2 24 13.5 NNE 7 19 4 10 1011.2 1010.7 0.0
29/02:00pm 32.6 30.5 11.2 27 12.5 NNE 13 20 7 11 1011.9 1011.4 0.0
29/01:30pm 32.9 31.4 12.0 28 12.4 NNE 11 19 6 10 1012.3 1011.8 0.0
29/01:00pm 31.9 30.5 12.2 30 11.7 NNE 11 19 6 10 1013.1 1012.5 0.0
29/12:30pm 31.7 30.9 13.0 32 11.2 NE 9 17 5 9 1013.6 1013.0 0.0
29/12:00pm 30.8 30.4 14.0 36 10.2 ENE 9 17 5 9 1014.1 1013.5 0.0
29/11:30am 29.7 29.9 14.7 40 9.2 ENE 7 13 4 7 1014.7 1014.1 0.0
29/11:00am 28.9 28.6 15.4 44 8.3 NE 11 19 6 10 1015.3 1014.7 0.0
29/10:30am 28.1 27.1 14.7 44 8.1 NNE 13 24 7 13 1015.6 1015.0 0.0
29/10:00am 27.8 27.1 15.5 47 7.5 NE 13 19 7 10 1015.8 1015.3 0.0
29/09:30am 27.2 28.8 18.2 58 5.7 ENE 7 15 4 8 1015.8 1015.3 0.0
29/09:00am 25.8 28.5 19.4 67 4.1 E 4 6 2 3 1015.6 1015.0 0.0
29/08:30am 23.5 25.3 18.2 72 3.3 ESE 6 7 3 4 1015.4 1014.8 0.0
29/08:00am 22.4 24.5 19.0 81 2.2 SW 6 9 3 5 1015.1 1014.5 0.0
29/07:30am 19.2 20.9 16.1 82 1.9 SW 2 4 1 2 1014.5 1013.9 0.0
29/07:00am 18.0 19.4 14.5 80 2.0 CALM 0 0 0 0 1014.2 1013.6 0.0
29/06:30am 18.3 19.7 14.4 78 2.3 CALM 0 0 0 0 1013.9 1013.3 0.0
29/06:00am 18.8 19.8 14.3 75 2.6 SW 2 2 1 1 1013.7 1013.1 0.0
29/05:30am 19.1 19.8 14.6 75 2.6 SW 4 6 2 3 1013.6 1013.0 0.0
29/05:00am 19.2 20.3 14.7 75 2.6 SW 2 2 1 1 1013.1 1012.5 0.0
29/04:30am 18.5 20.0 14.6 78 2.3 CALM 0 0 0 0 1012.9 1012.3 0.0
29/04:00am 18.4 19.8 14.3 77 2.4 CALM 0 0 0 0 1012.8 1012.2 0.0
29/03:30am 18.6 20.0 14.3 76 2.5 CALM 0 0 0 0 1012.9 1012.3 0.0
29/03:00am 18.8 20.2 14.3 75 2.6 CALM 0 0 0 0 1013.1 1012.5 0.0
29/02:30am 19.1 20.4 14.1 73 2.9 CALM 0 0 0 0 1013.3 1012.7 0.0
29/02:00am 19.4 20.4 14.4 73 2.9 SW 2 2 1 1 1013.4 1012.8 0.0
29/01:30am 20.1 21.0 14.0 68 3.5 SW 2 4 1 2 1013.6 1013.0 0.0
29/01:00am 19.9 20.1 13.1 65 3.9 SW 4 6 2 3 1013.6 1013.0 0.0
29/12:30am 20.1 20.0 13.3 65 3.9 SW 6 7 3 4 1013.8 1013.2 0.0
29/12:00am 20.7 21.7 13.2 62 4.3 CALM 0 0 0 0 1013.8 1013.2 0.0
 
Date/Time
CST
Temp
°C
App
Temp
°C
Dew
Point
°C
Rel
Hum
%
Delta-T
°C
Wind Press
QNH
hPa
Press
MSL
hPa
Rain since
9am
mm
Dir  Spd
km/h
Gust
km/h
Spd
kts
Gust
kts
28/11:30pm 21.5 22.5 13.2 59 4.8 CALM 0 0 0 0 1013.8 1013.2 0.0
28/11:00pm 21.8 22.6 12.6 56 5.2 CALM 0 2 0 1 1013.7 1013.1 0.0
28/10:30pm 22.7 23.2 12.9 54 5.6 W 2 2 1 1 1013.7 1013.1 0.0
28/10:00pm 23.9 24.8 12.8 49 6.4 CALM 0 2 0 1 1013.6 1013.0 0.0
28/09:30pm 24.6 24.8 12.9 48 6.8 WNW 4 7 2 4 1013.4 1012.8 0.0
28/09:00pm 25.0 25.2 12.9 47 7.0 WNW 4 6 2 3 1013.1 1012.5 0.0
28/08:30pm 25.8 25.7 13.3 46 7.3 WNW 6 9 3 5 1012.8 1012.2 0.0
28/08:00pm 26.5 25.8 13.3 44 7.8 NNW 9 13 5 7 1012.1 1011.6 0.0
28/07:30pm 27.7 26.0 12.5 39 8.9 NW 13 19 7 10 1011.7 1011.2 0.0
28/07:00pm 27.8 27.0 9.6 32 10.2 E 4 4 2 2 1010.9 1010.4 0.0
28/06:30pm 30.1 30.0 9.6 28 11.6 CALM 0 2 0 1 1010.7 1010.2 0.0
28/06:00pm 32.5 31.5 7.4 21 13.8 SSE 2 6 1 3 1010.5 1010.0 0.0
28/05:30pm 33.1 30.9 7.9 21 14.1 ESE 9 20 5 11 1010.4 1009.9 0.0
28/05:00pm 33.4 31.8 8.1 21 14.2 NNE 6 9 3 5 1010.3 1009.8 0.0
28/04:30pm 33.5 31.8 7.5 20 14.4 ESE 6 11 3 6 1010.3 1009.8 0.0
28/04:00pm 34.3 32.7 8.1 20 14.7 ENE 6 13 3 7 1010.4 1009.9 0.0
28/03:30pm 33.9 32.3 7.8 20 14.6 NNE 6 20 3 11 1010.6 1010.1 0.0
28/03:00pm 34.0 32.4 8.6 21 14.4 ESE 7 13 4 7 1011.1 1010.6 0.0
28/02:30pm 32.7 30.7 10.1 25 13.0 SSE 11 17 6 9 1011.5 1011.0 0.0
28/02:00pm 32.2 30.8 10.8 27 12.4 NE 9 19 5 10 1012.0 1011.5 0.0
28/01:30pm 32.9 32.4 12.0 28 12.4 W 6 17 3 9 1012.8 1012.2 0.0
28/01:00pm 32.3 31.2 12.0 29 12.0 NE 9 17 5 9 1013.3 1012.7 0.0
28/12:30pm 30.9 29.8 13.2 34 10.6 NNE 11 22 6 12 1013.9 1013.3 0.0
28/12:00pm 30.4 29.8 15.7 41 9.1 N 13 19 7 10 1014.6 1014.0 0.0
28/11:30am 29.8 29.9 16.6 45 8.3 NE 11 22 6 12 1015.1 1014.5 0.0
28/11:00am 29.1 29.6 16.6 46 7.8 NNE 9 22 5 12 1015.6 1015.0 0.0
28/10:30am 28.1 28.5 17.3 52 6.8 NE 11 20 6 11 1016.2 1015.7 0.0
28/10:00am 27.3 27.9 18.6 59 5.6 NNE 13 19 7 10 1016.4 1015.9 0.0
28/09:30am 26.3 26.8 18.4 61 5.0 ENE 13 24 7 13 1016.4 1015.9 0.0
28/09:00am 25.6 26.7 18.0 63 4.8 NE 9 17 5 9 1016.5 1016.0 0.0
28/08:30am 24.1 24.8 16.1 61 4.9 E 7 13 4 7 1016.3 1015.8 0.0
28/08:00am 21.9 21.5 13.0 57 5.1 E 7 9 4 5 1016.3 1015.8 0.0
28/07:30am 19.9 18.9 10.9 56 4.9 E 7 11 4 6 1016.0 1015.5 0.0
28/07:00am 17.5 16.3 10.4 63 3.8 ENE 7 11 4 6 1015.6 1015.0 0.0
28/06:30am 17.4 17.1 10.1 62 3.9 E 2 4 1 2 1015.4 1014.8 0.0
28/06:00am 17.6 16.5 9.8 60 4.1 E 6 7 3 4 1015.2 1014.6 0.0
28/05:30am 17.5 16.3 9.7 60 4.1 ENE 6 7 3 4 1014.9 1014.3 0.0
28/05:00am 17.8 18.4 13.1 74 2.7 ENE 2 2 1 1 1014.5 1013.9 0.0
28/04:30am 17.3 17.9 13.0 76 2.4 ENE 2 4 1 2 1014.4 1013.8 0.0
28/04:00am 18.0 19.3 14.1 78 2.2 CALM 0 0 0 0 1014.4 1013.8 0.0
28/03:30am 17.5 18.8 14.0 80 2.0 CALM 0 0 0 0 1014.6 1014.0 0.0
28/03:00am 17.8 19.0 13.9 78 2.2 CALM 0 0 0 0 1014.6 1014.0 0.0
28/02:30am 18.4 19.6 13.7 74 2.7 CALM 0 0 0 0 1014.9 1014.3 0.0
28/02:00am 18.8 20.0 13.9 73 2.8 CALM 0 0 0 0 1015.1 1014.5 0.0
28/01:30am 18.7 19.7 13.3 71 3.1 CALM 0 0 0 0 1015.3 1014.7 0.0
28/01:00am 19.4 20.4 13.3 68 3.5 CALM 0 0 0 0 1015.6 1015.0 0.0
28/12:30am 20.3 21.4 13.5 65 3.9 CALM 0 0 0 0 1015.6 1015.0 0.0
28/12:00am 21.0 22.0 13.2 61 4.5 CALM 0 0 0 0 1015.8 1015.3 0.0
 
Date/Time
CST
Temp
°C
App
Temp
°C
Dew
Point
°C
Rel
Hum
%
Delta-T
°C
Wind Press
QNH
hPa
Press
MSL
hPa
Rain since
9am
mm
Dir  Spd
km/h
Gust
km/h
Spd
kts
Gust
kts
27/11:30pm 21.9 22.4 12.7 56 5.3 NW 2 6 1 3 1015.8 1015.3 0.0
27/11:00pm 24.6 24.9 14.4 53 6.1 NW 6 9 3 5 1015.6 1015.0 0.0
27/10:30pm 24.0 22.6 9.6 40 7.9 NW 7 15 4 8 1015.5 1014.9 0.0
27/10:00pm 23.8 22.3 9.0 39 8.0 NNW 7 9 4 5 1015.0 1014.4 0.0
27/09:30pm 25.4 24.4 8.8 35 9.0 SE 4 6 2 3 1014.7 1014.1 0.0
27/09:00pm 26.4 25.0 8.8 33 9.6 SSE 6 7 3 4 1014.5 1013.9 0.0
27/08:30pm 24.9 24.1 9.6 38 8.4 SSE 4 7 2 4 1014.1 1013.5 0.0
27/08:00pm 25.5 25.4 9.3 36 8.9 CALM 0 0 0 0 1013.5 1012.9 0.0
27/07:30pm 26.6 26.4 9.0 33 9.7 CALM 0 0 0 0 1013.1 1012.5 0.0
27/07:00pm 27.8 27.2 7.6 28 10.9 CALM 0 0 0 0 1012.5 1012.0 0.0
27/06:30pm 30.7 29.2 6.6 22 13.0 SSE 4 7 2 4 1012.2 1011.7 0.0
27/06:00pm 32.0 30.0 6.2 20 13.9 SE 6 11 3 6 1012.0 1011.5 0.0
27/05:30pm 32.8 30.4 5.4 18 14.6 E 7 15 4 8 1011.9 1011.4 0.0
27/05:00pm 32.6 29.8 5.2 18 14.6 ESE 9 17 5 9 1011.9 1011.4 0.0
27/04:30pm 33.0 29.9 5.5 18 14.7 SE 11 17 6 9 1011.9 1011.4 0.0
27/04:00pm 33.3 30.7 4.1 16 15.3 E 7 17 4 9 1012.2 1011.7 0.0
27/03:30pm 32.9 30.0 4.6 17 14.9 SE 9 17 5 9 1012.3 1011.8 0.0
27/03:00pm 33.4 29.7 4.2 16 15.4 SE 13 22 7 12 1012.5 1012.0 0.0
27/02:30pm 33.0 29.0 2.9 15 15.5 ENE 13 19 7 10 1012.9 1012.3 0.0
27/02:00pm 32.4 28.5 3.4 16 15.0 E 13 20 7 11 1013.4 1012.8 0.0
27/01:30pm 32.0 26.9 3.1 16 14.8 SE 19 30 10 16 1014.1 1013.5 0.0
27/01:00pm 31.9 27.4 2.1 15 15.0 E 15 35 8 19 1014.9 1014.3 0.0
27/12:30pm 31.3 26.5 2.5 16 14.5 SE 17 28 9 15 1015.3 1014.7 0.0
27/12:00pm 31.3 26.6 3.4 17 14.3 E 17 35 9 19 1015.8 1015.3 0.0
27/11:30am 29.9 24.7 3.8 19 13.3 E 20 41 11 22 1016.2 1015.7 0.0
27/11:00am 29.4 25.3 6.1 23 12.4 ESE 17 32 9 17 1016.7 1016.2 0.0
27/10:30am 28.6 24.8 9.8 31 10.6 E 20 28 11 15 1017.0 1016.5 0.0
27/10:00am 28.2 25.4 13.3 40 8.8 E 20 30 11 16 1017.1 1016.6 0.0
27/09:30am 27.3 26.3 15.7 49 7.1 E 15 22 8 12 1016.8 1016.3 0.0

Other Formats:

Comma delimited format used in spreadsheet applications
http://www.bom.gov.au/fwo/IDD60801/IDD60801.94125.axf

JavaScript Object Notation format (JSON) in row-major order
http://www.bom.gov.au/fwo/IDD60801/IDD60801.94125.json